createdAt,value
2017-12-20T00:02:08.613Z,0.40
2017-12-20T00:04:36.216Z,0.40
2017-12-20T00:07:03.844Z,0.40
2017-12-20T00:09:32.279Z,0.40
2017-12-20T00:11:59.874Z,0.40
2017-12-20T00:14:27.535Z,0.50
2017-12-20T00:16:55.145Z,0.50
2017-12-20T00:19:23.525Z,0.60
2017-12-20T00:21:51.892Z,0.50
2017-12-20T00:24:19.527Z,0.50
2017-12-20T00:26:47.117Z,0.60
2017-12-20T00:29:14.788Z,0.60
2017-12-20T00:31:42.431Z,0.60
2017-12-20T00:34:10.064Z,0.60
2017-12-20T00:36:37.724Z,0.60
2017-12-20T00:39:05.347Z,0.60
2017-12-20T00:41:32.968Z,0.60
2017-12-20T00:44:00.585Z,0.60
2017-12-20T00:46:28.222Z,0.60
2017-12-20T00:48:55.837Z,0.70
2017-12-20T00:51:24.219Z,0.70
2017-12-20T00:53:52.618Z,0.80
2017-12-20T00:56:20.997Z,0.80
2017-12-20T00:58:49.408Z,0.70
2017-12-20T01:01:17.046Z,0.70
2017-12-20T01:03:45.403Z,0.70
2017-12-20T01:06:13.019Z,0.70
2017-12-20T01:08:40.632Z,0.70
2017-12-20T01:11:08.259Z,0.70
2017-12-20T01:13:35.847Z,0.70
2017-12-20T01:16:03.455Z,0.70
2017-12-20T01:18:31.813Z,0.70
2017-12-20T01:21:01.258Z,0.70
2017-12-20T01:23:28.870Z,0.60
2017-12-20T01:25:56.492Z,0.70
2017-12-20T01:28:24.074Z,0.70
2017-12-20T01:30:52.023Z,0.70
2017-12-20T01:33:20.692Z,0.70
2017-12-20T01:35:48.295Z,0.70
2017-12-20T01:38:15.882Z,0.70
2017-12-20T01:40:43.520Z,0.70
2017-12-20T01:43:11.163Z,0.70
2017-12-20T01:45:38.821Z,0.70
2017-12-20T01:48:06.440Z,0.60
2017-12-20T01:50:34.088Z,0.70
2017-12-20T01:53:01.741Z,0.60
2017-12-20T01:55:30.118Z,0.50
2017-12-20T01:57:58.516Z,0.50
2017-12-20T02:00:26.911Z,0.50
2017-12-20T02:02:54.552Z,0.60
2017-12-20T02:05:22.191Z,0.60
2017-12-20T02:07:49.780Z,0.50
2017-12-20T02:10:18.164Z,0.60
2017-12-20T02:12:46.561Z,0.60
2017-12-20T02:15:14.981Z,0.50
2017-12-20T02:17:42.592Z,0.50
2017-12-20T02:20:10.212Z,0.50
2017-12-20T02:22:38.590Z,0.60
2017-12-20T02:25:06.223Z,0.60
2017-12-20T02:27:34.604Z,0.50
2017-12-20T02:30:03.003Z,0.60
2017-12-20T02:32:30.649Z,0.50
2017-12-20T02:34:59.024Z,0.60
2017-12-20T02:37:27.669Z,0.60
2017-12-20T02:39:55.271Z,0.50
2017-12-20T02:42:22.929Z,0.60
2017-12-20T02:44:50.575Z,0.60
2017-12-20T02:47:18.228Z,0.60
2017-12-20T02:49:45.932Z,0.60
2017-12-20T02:52:13.553Z,0.60
2017-12-20T02:54:41.199Z,0.60
2017-12-20T02:57:08.838Z,0.60
2017-12-20T02:59:36.454Z,0.70
2017-12-20T03:02:04.055Z,0.70
2017-12-20T03:04:31.707Z,0.70
2017-12-20T03:06:59.336Z,0.70
2017-12-20T03:09:26.982Z,0.70
2017-12-20T03:11:57.770Z,0.60
2017-12-20T03:14:25.397Z,0.60
2017-12-20T03:16:53.758Z,0.60
2017-12-20T03:19:21.400Z,0.60
2017-12-20T03:21:49.055Z,0.60
2017-12-20T03:24:16.678Z,0.70
2017-12-20T03:26:44.314Z,0.70
2017-12-20T03:29:11.957Z,0.70
2017-12-20T03:31:39.595Z,0.70
2017-12-20T03:34:07.229Z,0.70
2017-12-20T03:36:35.638Z,0.70
2017-12-20T03:39:03.254Z,0.70
2017-12-20T03:41:30.860Z,0.70
2017-12-20T03:43:59.242Z,0.80
2017-12-20T03:46:27.615Z,0.70
2017-12-20T03:48:56.022Z,0.80
2017-12-20T03:51:23.635Z,0.70
2017-12-20T03:53:51.281Z,0.80
2017-12-20T03:56:18.905Z,0.80
2017-12-20T03:58:47.308Z,0.80
2017-12-20T04:01:14.927Z,0.80
2017-12-20T04:03:42.547Z,0.80
2017-12-20T04:06:10.143Z,0.80
2017-12-20T04:08:37.783Z,0.80
2017-12-20T04:11:05.379Z,0.80
2017-12-20T04:13:32.997Z,0.80
2017-12-20T04:16:00.650Z,0.80
2017-12-20T04:18:29.040Z,0.80
2017-12-20T04:20:57.437Z,0.80
2017-12-20T04:23:25.040Z,0.80
2017-12-20T04:25:58.815Z,0.80
2017-12-20T04:28:26.456Z,0.80
2017-12-20T04:30:54.835Z,0.90
2017-12-20T04:33:23.251Z,0.90
2017-12-20T04:35:50.862Z,0.90
2017-12-20T04:38:18.468Z,0.90
2017-12-20T04:40:46.082Z,0.90
2017-12-20T04:43:13.712Z,0.90
2017-12-20T04:45:41.334Z,0.90
2017-12-20T04:48:08.962Z,0.80
2017-12-20T04:50:37.347Z,0.90
2017-12-20T04:53:04.949Z,0.90
2017-12-20T04:55:32.560Z,0.90
2017-12-20T04:58:00.296Z,0.90
2017-12-20T05:00:28.764Z,0.90
2017-12-20T05:02:56.398Z,0.90
2017-12-20T05:05:24.018Z,0.90
2017-12-20T05:07:52.407Z,1.00
2017-12-20T05:10:20.776Z,0.90
2017-12-20T05:12:49.168Z,1.00
2017-12-20T05:15:17.524Z,1.00
2017-12-20T05:17:45.167Z,1.00
2017-12-20T05:20:12.774Z,1.00
2017-12-20T05:22:41.154Z,1.00
2017-12-20T05:25:08.788Z,1.00
2017-12-20T05:27:36.425Z,0.90
2017-12-20T05:30:04.419Z,0.90
2017-12-20T05:32:32.035Z,1.00
2017-12-20T05:35:00.443Z,0.90
2017-12-20T05:37:28.475Z,0.90
2017-12-20T05:39:56.086Z,0.90
2017-12-20T05:42:24.063Z,0.90
2017-12-20T05:44:51.700Z,0.80
2017-12-20T05:47:21.165Z,0.80
2017-12-20T05:49:48.807Z,0.80
2017-12-20T05:52:16.426Z,0.80
2017-12-20T05:54:44.070Z,0.80
2017-12-20T05:57:11.668Z,0.80
2017-12-20T05:59:39.322Z,0.80
2017-12-20T06:02:06.985Z,0.80
2017-12-20T06:04:34.625Z,0.80
2017-12-20T06:07:02.260Z,0.80
2017-12-20T06:09:29.870Z,0.80
2017-12-20T06:11:57.505Z,0.90
2017-12-20T06:14:25.077Z,0.90
2017-12-20T06:16:52.688Z,0.90
2017-12-20T06:19:20.289Z,0.90
2017-12-20T06:21:47.893Z,0.90
2017-12-20T06:24:15.505Z,0.90
2017-12-20T06:26:43.884Z,0.80
2017-12-20T06:29:12.263Z,0.90
2017-12-20T06:31:40.679Z,0.90
2017-12-20T06:34:08.354Z,0.80
2017-12-20T06:36:36.729Z,0.80
2017-12-20T06:39:04.378Z,0.80
2017-12-20T06:41:31.993Z,0.80
2017-12-20T06:43:59.612Z,0.80
2017-12-20T06:46:27.962Z,0.80
2017-12-20T06:48:57.817Z,0.80
2017-12-20T06:51:25.437Z,0.90
2017-12-20T06:53:53.037Z,0.90
2017-12-20T06:56:21.443Z,0.90
2017-12-20T06:58:49.028Z,0.90
2017-12-20T07:01:16.643Z,0.90
2017-12-20T07:03:45.036Z,0.90
2017-12-20T07:06:13.404Z,0.90
2017-12-20T07:08:42.014Z,0.90
2017-12-20T07:11:09.632Z,0.90
2017-12-20T07:13:38.286Z,0.90
2017-12-20T07:16:05.893Z,0.90
2017-12-20T07:18:33.495Z,0.90
2017-12-20T07:21:01.116Z,1.00
2017-12-20T07:23:28.729Z,1.00
2017-12-20T07:25:56.373Z,1.10
2017-12-20T07:28:23.954Z,1.20
2017-12-20T07:30:52.316Z,1.20
2017-12-20T07:33:20.919Z,1.20
2017-12-20T07:35:49.310Z,1.20
2017-12-20T07:38:17.687Z,1.30
2017-12-20T07:40:46.056Z,1.30
2017-12-20T07:43:14.692Z,1.30
2017-12-20T07:45:42.318Z,1.40
2017-12-20T07:48:10.744Z,1.40
2017-12-20T07:50:38.371Z,1.40
2017-12-20T07:53:06.726Z,1.50
2017-12-20T07:55:34.383Z,1.50
2017-12-20T07:58:02.010Z,1.50
2017-12-20T08:00:29.612Z,1.60
2017-12-20T08:02:57.206Z,1.60
2017-12-20T08:05:24.817Z,1.60
2017-12-20T08:07:52.449Z,1.60
2017-12-20T08:10:20.846Z,1.60
2017-12-20T08:12:48.469Z,1.60
2017-12-20T08:15:16.108Z,1.60
2017-12-20T08:17:43.705Z,1.70
2017-12-20T08:20:11.321Z,1.70
2017-12-20T08:22:38.971Z,1.70
2017-12-20T08:25:06.592Z,1.80
2017-12-20T08:27:34.223Z,1.90
2017-12-20T08:30:01.836Z,2.00
2017-12-20T08:32:29.479Z,2.00
2017-12-20T08:34:57.074Z,2.10
2017-12-20T08:37:24.684Z,2.20
2017-12-20T08:39:52.304Z,2.30
2017-12-20T08:42:20.066Z,2.30
2017-12-20T08:44:48.737Z,2.30
2017-12-20T08:47:16.337Z,2.40
2017-12-20T08:49:43.946Z,2.60
2017-12-20T08:52:11.560Z,2.70
2017-12-20T08:54:39.179Z,2.90
2017-12-20T08:57:06.773Z,3.00
2017-12-20T08:59:34.397Z,3.00
2017-12-20T09:02:02.012Z,3.20
2017-12-20T09:04:29.612Z,3.20
2017-12-20T09:06:58.004Z,3.30
2017-12-20T09:09:25.598Z,3.30
2017-12-20T09:11:53.193Z,3.30
2017-12-20T09:14:20.808Z,3.30
2017-12-20T09:16:48.444Z,3.30
2017-12-20T09:19:16.061Z,3.30
2017-12-20T09:21:43.713Z,3.40
2017-12-20T09:24:11.311Z,3.40
2017-12-20T09:26:38.905Z,3.50
2017-12-20T09:29:06.522Z,3.60
2017-12-20T09:31:34.138Z,3.60
2017-12-20T09:34:01.738Z,3.70
2017-12-20T09:36:29.349Z,3.70
2017-12-20T09:38:57.024Z,3.80
2017-12-20T09:41:24.674Z,3.70
2017-12-20T09:43:52.376Z,3.80
2017-12-20T09:46:20.010Z,3.80
2017-12-20T09:48:47.651Z,3.80
2017-12-20T09:51:15.247Z,3.80
2017-12-20T09:53:43.896Z,3.80
2017-12-20T09:56:11.515Z,3.90
2017-12-20T09:58:39.153Z,3.90
2017-12-20T10:01:06.775Z,3.90
2017-12-20T10:03:35.170Z,3.90
2017-12-20T10:06:03.537Z,3.90
2017-12-20T10:08:31.921Z,4.00
2017-12-20T10:11:00.325Z,4.20
2017-12-20T10:13:28.741Z,4.30
2017-12-20T10:15:56.395Z,4.20
2017-12-20T10:18:24.025Z,4.30
2017-12-20T10:20:52.432Z,4.60
2017-12-20T10:23:20.030Z,4.60
2017-12-20T10:25:47.668Z,4.80
2017-12-20T10:28:15.313Z,5.00
2017-12-20T10:30:43.683Z,5.00
2017-12-20T10:33:12.079Z,4.80
2017-12-20T10:35:39.711Z,4.80
2017-12-20T10:38:07.313Z,4.90
2017-12-20T10:40:35.710Z,4.80
2017-12-20T10:43:03.335Z,4.80
2017-12-20T10:45:30.930Z,4.70
2017-12-20T10:47:59.521Z,5.10
2017-12-20T10:50:27.187Z,5.10
2017-12-20T10:52:55.550Z,5.00
2017-12-20T10:55:23.150Z,5.00
2017-12-20T10:57:51.123Z,4.90
2017-12-20T11:00:18.814Z,4.70
2017-12-20T11:02:46.410Z,4.80
2017-12-20T11:05:14.053Z,4.70
2017-12-20T11:07:41.658Z,4.90
2017-12-20T11:10:09.341Z,5.20
2017-12-20T11:12:37.798Z,5.30
2017-12-20T11:15:05.412Z,5.20
2017-12-20T11:17:33.039Z,5.20
2017-12-20T11:20:00.609Z,4.90
2017-12-20T11:22:29.047Z,4.80
2017-12-20T11:24:56.622Z,4.80
2017-12-20T11:27:24.230Z,4.60
2017-12-20T11:29:52.644Z,4.80
2017-12-20T11:32:21.003Z,4.80
2017-12-20T11:34:49.379Z,5.00
2017-12-20T11:37:17.758Z,4.90
2017-12-20T11:39:46.095Z,4.80
2017-12-20T11:42:13.706Z,4.80
2017-12-20T11:44:42.074Z,5.00
2017-12-20T11:47:09.666Z,5.00
2017-12-20T11:49:37.271Z,5.00
2017-12-20T11:52:04.883Z,5.00
2017-12-20T11:54:32.528Z,5.00
2017-12-20T11:57:00.107Z,5.10
2017-12-20T11:59:27.744Z,5.10
2017-12-20T12:01:55.370Z,5.00
2017-12-20T12:04:22.982Z,5.00
2017-12-20T12:06:50.651Z,4.90
2017-12-20T12:09:18.234Z,4.80
2017-12-20T12:11:45.866Z,4.80
2017-12-20T12:14:13.464Z,5.00
2017-12-20T12:16:41.162Z,5.10
2017-12-20T12:19:09.536Z,5.50
2017-12-20T12:21:37.179Z,5.50
2017-12-20T12:24:04.808Z,5.70
2017-12-20T12:26:32.435Z,5.80
2017-12-20T12:29:00.790Z,6.30
2017-12-20T12:31:28.390Z,6.30
2017-12-20T12:33:56.023Z,6.60
2017-12-20T12:36:23.669Z,6.90
2017-12-20T12:38:51.289Z,6.80
2017-12-20T12:41:19.650Z,6.90
2017-12-20T12:43:47.262Z,6.90
2017-12-20T12:46:15.663Z,6.30
2017-12-20T12:48:43.301Z,6.30
2017-12-20T12:51:10.924Z,6.10
2017-12-20T12:53:38.568Z,5.90
2017-12-20T12:56:06.205Z,5.50
2017-12-20T12:58:33.802Z,5.40
2017-12-20T13:01:02.444Z,5.20
2017-12-20T13:03:30.077Z,5.00
2017-12-20T13:05:57.717Z,4.80
2017-12-20T13:08:25.317Z,4.60
2017-12-20T13:10:52.947Z,4.60
2017-12-20T13:13:20.545Z,4.50
2017-12-20T13:15:48.180Z,4.40
2017-12-20T13:18:15.813Z,4.30
2017-12-20T13:20:43.400Z,4.20
2017-12-20T13:23:11.027Z,4.30
2017-12-20T13:25:39.431Z,4.10
2017-12-20T13:28:07.050Z,4.10
2017-12-20T13:30:34.718Z,4.00
2017-12-20T13:33:02.336Z,4.10
2017-12-20T13:35:29.926Z,4.00
2017-12-20T13:37:57.557Z,3.90
2017-12-20T13:40:25.160Z,3.90
2017-12-20T13:42:52.739Z,3.90
2017-12-20T13:45:20.352Z,3.90
2017-12-20T13:47:48.632Z,4.00
2017-12-20T13:50:16.266Z,4.00
2017-12-20T13:52:44.232Z,4.00
2017-12-20T13:55:11.864Z,3.80
2017-12-20T13:57:39.494Z,3.80
2017-12-20T14:00:07.882Z,3.80
2017-12-20T14:02:35.518Z,3.70
2017-12-20T14:05:03.147Z,3.60
2017-12-20T14:07:30.798Z,3.60
2017-12-20T14:09:58.425Z,3.40
2017-12-20T14:12:26.069Z,3.40
2017-12-20T14:14:53.695Z,3.10
2017-12-20T14:17:21.309Z,3.10
2017-12-20T14:19:49.951Z,2.90
2017-12-20T14:22:17.558Z,2.90
2017-12-20T14:24:45.178Z,2.80
2017-12-20T14:27:12.795Z,2.70
2017-12-20T14:29:40.386Z,2.60
2017-12-20T14:32:08.792Z,2.70
2017-12-20T14:34:36.414Z,2.70
2017-12-20T14:37:04.010Z,2.70
2017-12-20T14:39:32.647Z,2.70
2017-12-20T14:42:00.261Z,2.80
2017-12-20T14:44:27.885Z,2.70
2017-12-20T14:46:55.515Z,2.80
2017-12-20T14:49:23.112Z,2.80
2017-12-20T14:51:52.059Z,2.80
2017-12-20T14:54:20.452Z,2.70
2017-12-20T14:56:48.815Z,2.60
2017-12-20T14:59:16.443Z,2.60
2017-12-20T15:01:44.081Z,2.60
2017-12-20T15:04:12.719Z,2.60
2017-12-20T15:06:41.118Z,2.60
2017-12-20T15:09:09.008Z,2.60
2017-12-20T15:11:37.594Z,2.60
2017-12-20T15:14:05.364Z,2.60
2017-12-20T15:16:33.263Z,2.60
2017-12-20T15:19:01.033Z,2.50
2017-12-20T15:21:28.680Z,2.50
2017-12-20T15:23:56.697Z,2.40
2017-12-20T15:26:24.349Z,2.30
2017-12-20T15:28:52.091Z,2.20
2017-12-20T15:31:19.799Z,2.10
2017-12-20T15:33:47.451Z,2.00
2017-12-20T15:36:15.110Z,1.90
2017-12-20T15:38:42.737Z,1.90
2017-12-20T15:41:11.091Z,1.70
2017-12-20T15:43:38.739Z,1.70
2017-12-20T15:46:06.406Z,1.70
2017-12-20T15:48:34.844Z,1.50
2017-12-20T15:51:03.267Z,1.60
2017-12-20T15:53:30.895Z,1.50
2017-12-20T15:55:59.719Z,1.70
2017-12-20T15:58:27.372Z,1.70
2017-12-20T16:00:55.029Z,1.70
2017-12-20T16:03:23.385Z,1.70
2017-12-20T16:05:51.030Z,1.70
2017-12-20T16:08:18.618Z,1.60
2017-12-20T16:10:46.217Z,1.60
2017-12-20T16:13:14.647Z,1.60
2017-12-20T16:15:42.510Z,1.60
2017-12-20T16:18:10.341Z,1.60
2017-12-20T16:20:38.018Z,1.50
2017-12-20T16:23:05.671Z,1.40
2017-12-20T16:25:33.271Z,1.40
2017-12-20T16:28:00.895Z,1.30
2017-12-20T16:30:28.537Z,1.40
2017-12-20T16:32:56.643Z,1.30
2017-12-20T16:35:24.291Z,1.50
2017-12-20T16:37:51.911Z,1.50
2017-12-20T16:40:21.200Z,1.50
2017-12-20T16:42:49.750Z,1.50
2017-12-20T16:45:17.574Z,1.50
2017-12-20T16:47:45.170Z,1.40
2017-12-20T16:50:13.370Z,1.40
2017-12-20T16:52:41.033Z,1.50
2017-12-20T16:55:09.514Z,1.40
2017-12-20T16:57:37.219Z,1.40
2017-12-20T17:00:04.807Z,1.50
2017-12-20T17:02:32.533Z,1.50
2017-12-20T17:05:00.271Z,1.40
2017-12-20T17:07:27.929Z,1.40
2017-12-20T17:09:55.540Z,1.40
2017-12-20T17:12:23.147Z,1.40
2017-12-20T17:14:51.132Z,1.30
2017-12-20T17:17:20.285Z,1.30
2017-12-20T17:19:47.966Z,1.30
2017-12-20T17:22:15.583Z,1.40
2017-12-20T17:24:43.794Z,1.40
2017-12-20T17:27:11.541Z,1.40
2017-12-20T17:29:39.949Z,1.40
2017-12-20T17:32:07.585Z,1.40
2017-12-20T17:34:35.218Z,1.40
2017-12-20T17:37:03.305Z,1.40
2017-12-20T17:39:31.429Z,1.40
2017-12-20T17:41:59.063Z,1.30
2017-12-20T17:44:26.707Z,1.50
2017-12-20T17:46:54.475Z,1.50
2017-12-20T17:49:22.154Z,1.40
2017-12-20T17:51:51.175Z,1.40
2017-12-20T17:54:19.894Z,1.50
2017-12-20T17:56:48.100Z,1.50
2017-12-20T17:59:15.951Z,1.40
2017-12-20T18:01:44.447Z,1.40
2017-12-20T18:04:12.357Z,1.40
2017-12-20T18:06:40.727Z,1.30
2017-12-20T18:09:08.506Z,1.30
2017-12-20T18:11:36.158Z,1.30
2017-12-20T18:14:03.788Z,1.30
2017-12-20T18:16:32.167Z,1.30
2017-12-20T18:19:00.675Z,1.40
2017-12-20T18:21:28.324Z,1.30
2017-12-20T18:23:55.929Z,1.40
2017-12-20T18:26:23.527Z,1.30
2017-12-20T18:28:51.993Z,1.40
2017-12-20T18:31:19.596Z,1.40
2017-12-20T18:33:47.955Z,1.30
2017-12-20T18:36:16.206Z,1.30
2017-12-20T18:38:44.255Z,1.30
2017-12-20T18:41:12.283Z,1.30
2017-12-20T18:43:40.029Z,1.30
2017-12-20T18:46:07.807Z,1.20
2017-12-20T18:48:35.951Z,1.10
2017-12-20T18:51:03.593Z,1.10
2017-12-20T18:53:32.288Z,1.00
2017-12-20T18:56:01.016Z,1.00
2017-12-20T18:58:28.731Z,1.10
2017-12-20T19:00:56.412Z,1.10
2017-12-20T19:03:24.810Z,1.10
2017-12-20T19:05:52.449Z,1.10
2017-12-20T19:08:20.486Z,1.10
2017-12-20T19:10:48.101Z,1.10
2017-12-20T19:13:16.068Z,1.00
2017-12-20T19:15:44.487Z,1.00
2017-12-20T19:18:12.107Z,0.90
2017-12-20T19:20:39.778Z,0.90
2017-12-20T19:23:08.204Z,0.80
2017-12-20T19:25:35.961Z,0.80
2017-12-20T19:28:03.746Z,0.80
2017-12-20T19:30:31.449Z,0.80
2017-12-20T19:32:59.987Z,0.70
2017-12-20T19:35:27.918Z,0.70
2017-12-20T19:37:55.909Z,0.80
2017-12-20T19:40:24.503Z,0.60
2017-12-20T19:42:53.345Z,0.50
2017-12-20T19:45:21.029Z,0.50
2017-12-20T19:47:48.949Z,0.50
2017-12-20T19:50:16.666Z,0.40
2017-12-20T19:52:44.502Z,0.40
2017-12-20T19:55:12.259Z,0.50
2017-12-20T19:57:39.944Z,0.40
2017-12-20T20:00:07.598Z,0.40
2017-12-20T20:02:36.066Z,0.30
2017-12-20T20:05:03.720Z,0.30
2017-12-20T20:07:31.411Z,0.20
2017-12-20T20:10:00.904Z,0.20
2017-12-20T20:12:29.447Z,0.30
2017-12-20T20:14:57.590Z,0.30
2017-12-20T20:17:25.281Z,0.20
2017-12-20T20:19:52.935Z,0.20
2017-12-20T20:22:20.938Z,0.30
2017-12-20T20:24:49.114Z,0.30
2017-12-20T20:27:17.688Z,0.20
2017-12-20T20:29:45.370Z,0.20
2017-12-20T20:32:13.085Z,0.20
2017-12-20T20:34:40.743Z,0.20
2017-12-20T20:37:08.508Z,0.30
2017-12-20T20:39:36.150Z,0.20
2017-12-20T20:42:03.918Z,0.20
2017-12-20T20:44:31.902Z,0.20
2017-12-20T20:46:59.588Z,0.20
2017-12-20T20:49:27.234Z,0.30
2017-12-20T20:51:54.851Z,0.30
2017-12-20T20:54:22.508Z,0.30
2017-12-20T20:56:50.576Z,0.40
2017-12-20T20:59:18.221Z,0.40
2017-12-20T21:01:45.865Z,0.40
2017-12-20T21:04:13.524Z,0.40
2017-12-20T21:06:41.415Z,0.40
2017-12-20T21:09:10.326Z,0.40
2017-12-20T21:11:38.207Z,0.40
2017-12-20T21:14:05.850Z,0.50
2017-12-20T21:16:33.965Z,0.40
2017-12-20T21:19:02.805Z,0.50
2017-12-20T21:21:30.479Z,0.50
2017-12-20T21:23:58.201Z,0.50
2017-12-20T21:26:26.029Z,0.40
2017-12-20T21:28:53.753Z,0.50
2017-12-20T21:31:21.395Z,0.50
2017-12-20T21:33:49.516Z,0.60
2017-12-20T21:36:17.170Z,0.50
2017-12-20T21:38:45.213Z,0.50
2017-12-20T21:41:14.244Z,0.30
2017-12-20T21:43:41.988Z,0.30
2017-12-20T21:46:10.923Z,0.30
2017-12-20T21:48:39.436Z,0.30
2017-12-20T21:51:07.061Z,0.30
2017-12-20T21:53:34.988Z,0.40
2017-12-20T21:56:04.668Z,0.40
2017-12-20T21:58:34.891Z,0.40
2017-12-20T22:01:03.562Z,0.30
2017-12-20T22:03:31.176Z,0.30
2017-12-20T22:05:59.367Z,0.40
2017-12-20T22:08:27.404Z,0.40
2017-12-20T22:10:55.412Z,0.50
2017-12-20T22:13:23.691Z,0.40
2017-12-20T22:15:51.667Z,0.40
2017-12-20T22:18:19.358Z,0.50
2017-12-20T22:20:48.145Z,0.40
2017-12-20T22:23:16.204Z,0.40
2017-12-20T22:25:43.952Z,0.40
2017-12-20T22:28:11.731Z,0.40
2017-12-20T22:30:39.378Z,0.40
2017-12-20T22:33:07.345Z,0.40
2017-12-20T22:35:35.018Z,0.30
2017-12-20T22:38:03.189Z,0.30
2017-12-20T22:40:31.394Z,0.30
2017-12-20T22:42:59.560Z,0.30
2017-12-20T22:45:27.412Z,0.30
2017-12-20T22:47:55.450Z,0.20
2017-12-20T22:50:23.719Z,0.30
2017-12-20T22:52:51.484Z,0.20
2017-12-20T22:55:19.337Z,0.20
2017-12-20T22:57:47.292Z,0.20
2017-12-20T23:00:15.314Z,0.20
2017-12-20T23:02:43.549Z,0.30
2017-12-20T23:05:11.253Z,0.30
2017-12-20T23:07:38.900Z,0.30
2017-12-20T23:10:06.512Z,0.40
2017-12-20T23:12:34.143Z,0.30
2017-12-20T23:15:03.025Z,0.40
2017-12-20T23:17:30.822Z,0.40
2017-12-20T23:19:59.734Z,0.30
2017-12-20T23:22:28.250Z,0.30
2017-12-20T23:24:55.884Z,0.30
2017-12-20T23:27:24.289Z,0.30
2017-12-20T23:29:51.934Z,0.30
2017-12-20T23:32:20.337Z,0.20
2017-12-20T23:34:48.028Z,0.20
2017-12-20T23:37:15.860Z,0.30
2017-12-20T23:39:43.626Z,0.30
2017-12-20T23:42:12.496Z,0.50
2017-12-20T23:44:40.412Z,0.50
2017-12-20T23:47:08.259Z,0.50
2017-12-20T23:49:35.947Z,0.50
2017-12-20T23:52:03.578Z,0.50
2017-12-20T23:54:31.241Z,0.50
2017-12-20T23:56:58.900Z,0.50
2017-12-20T23:59:26.542Z,0.50
